Time;durP1;ratioP1;P1;durP2;ratioP2;P2;SDS_P1;SDS_P2;PMS_P1;PMS_P2;Temp;Humidity;BMP_temperature;BMP_pressure;BME280_temperature;BME280_humidity;BME280_pressure;Samples;Min_cycle;Max_cycle;Signal;HPM_P1;HPM_P2
2021/10/10 00:00:58;;;;;;;48.38;25.62;;;;;;;2.01;73.81;101440.91;1635418;86;20946;-79
2021/10/10 00:03:24;;;;;;;55.78;27.67;;;;;;;2.02;73.85;101437.94;1631993;86;20959;-79
2021/10/10 00:05:51;;;;;;;53.33;26.12;;;;;;;2.03;73.65;101436.22;1604503;87;21046;-79
2021/10/10 00:08:18;;;;;;;58.20;27.65;;;;;;;1.95;73.46;101433.09;1640617;85;20972;-79
2021/10/10 00:10:45;;;;;;;47.50;25.37;;;;;;;1.89;73.46;101428.28;1638780;85;20912;-79
2021/10/10 00:13:11;;;;;;;49.90;25.80;;;;;;;1.83;73.40;101432.91;1629591;86;20977;-79
2021/10/10 00:15:38;;;;;;;33.70;21.90;;;;;;;1.74;73.52;101429.77;1623376;86;20939;-79
2021/10/10 00:18:04;;;;;;;43.45;25.05;;;;;;;1.67;73.73;101430.93;1630071;86;21100;-79
2021/10/10 00:20:31;;;;;;;42.20;25.82;;;;;;;1.66;73.79;101427.92;1620296;86;20935;-80
2021/10/10 00:22:58;;;;;;;49.13;26.48;;;;;;;1.63;73.81;101428.73;1624207;86;20995;-79
2021/10/10 00:25:24;;;;;;;43.98;25.90;;;;;;;1.60;73.91;101427.79;1625642;86;20922;-79
2021/10/10 00:27:51;;;;;;;44.48;26.07;;;;;;;1.62;73.99;101431.27;1624682;86;22020;-79
2021/10/10 00:30:20;;;;;;;47.80;27.35;;;;;;;1.66;74.13;101433.07;1615156;86;21283;-79
2021/10/10 00:32:46;;;;;;;46.70;26.37;;;;;;;1.68;74.15;101428.79;1626818;86;20899;-79
2021/10/10 00:35:14;;;;;;;45.23;24.57;;;;;;;1.67;74.12;101434.80;1630622;86;20938;-79
2021/10/10 00:37:41;;;;;;;46.08;25.23;;;;;;;1.69;74.23;101422.81;1599923;86;20907;-79
2021/10/10 00:40:10;;;;;;;36.53;22.13;;;;;;;1.69;74.25;101425.39;1614877;87;21497;-79
2021/10/10 00:42:36;;;;;;;38.98;24.23;;;;;;;1.67;74.30;101417.63;1619992;87;21207;-80
2021/10/10 00:45:03;;;;;;;43.20;24.45;;;;;;;1.64;74.26;101420.16;1618038;87;21524;-79
2021/10/10 00:47:30;;;;;;;37.75;23.60;;;;;;;1.62;74.25;101415.82;1595202;87;21505;-79
2021/10/10 00:49:57;;;;;;;39.48;24.95;;;;;;;1.56;74.24;101417.45;1617294;87;21533;-79
2021/10/10 00:52:25;;;;;;;48.40;25.77;;;;;;;1.47;74.18;101414.73;1628884;86;20935;-79
2021/10/10 00:54:54;;;;;;;40.43;25.88;;;;;;;1.36;74.15;101418.83;1615815;87;21112;-79
2021/10/10 00:57:24;;;;;;;36.60;24.15;;;;;;;1.28;74.32;101411.39;1616402;87;21014;-79
2021/10/10 00:59:53;;;;;;;39.40;25.60;;;;;;;1.26;74.58;101401.48;1617601;87;20915;-80
2021/10/10 01:02:20;;;;;;;41.28;25.20;;;;;;;1.25;74.70;101404.90;1618209;87;21040;-79
2021/10/10 01:04:46;;;;;;;39.70;24.23;;;;;;;1.20;74.68;101406.52;1619901;87;20954;-79
2021/10/10 01:07:13;;;;;;;41.13;25.05;;;;;;;1.17;74.82;101405.18;1599314;87;21472;-79
2021/10/10 01:09:41;;;;;;;43.63;25.10;;;;;;;1.17;74.98;101403.89;1626393;86;21486;-79
2021/10/10 01:12:07;;;;;;;;;;;;;;;1.15;74.89;101400.41;1636449;86;21023;-79
2021/10/10 01:14:35;;;;;;;43.52;26.55;;;;;;;1.08;74.96;101397.73;1602012;87;20093;-79
2021/10/10 01:17:03;;;;;;;43.33;26.07;;;;;;;1.05;74.99;101396.41;1646715;86;20946;-80
2021/10/10 01:19:34;;;;;;;45.23;29.25;;;;;;;1.04;75.02;101392.11;1633975;86;21102;-79
2021/10/10 01:22:03;;;;;;;41.70;25.70;;;;;;;1.04;75.17;101393.39;1625887;86;20947;-80
2021/10/10 01:24:30;;;;;;;49.83;27.62;;;;;;;1.05;75.22;101392.55;1601810;87;20981;-80
2021/10/10 01:26:57;;;;;;;36.68;24.40;;;;;;;1.04;75.18;101392.11;1633368;86;20996;-80
2021/10/10 01:29:24;;;;;;;44.20;25.68;;;;;;;1.03;75.24;101394.21;1630114;86;21022;-80
2021/10/10 01:31:52;;;;;;;37.53;23.60;;;;;;;0.99;75.26;101389.86;1626131;86;21555;-79
2021/10/10 01:34:19;;;;;;;32.85;21.20;;;;;;;0.98;75.39;101390.71;1624196;86;21026;-79
2021/10/10 01:36:46;;;;;;;36.95;23.25;;;;;;;0.98;75.56;101385.96;1631143;86;21027;-79
2021/10/10 01:39:12;;;;;;;;;;;;;;;0.98;75.57;101386.86;1587635;88;21015;-79
2021/10/10 01:41:39;;;;;;;44.08;24.18;;;;;;;0.96;75.63;101381.23;1599337;87;20807;-80
2021/10/10 01:44:14;;;;;;;41.90;25.20;;;;;;;0.91;75.51;101380.27;1585472;88;21213;-79
2021/10/10 01:46:42;;;;;;;37.58;24.47;;;;;;;0.88;75.53;101378.51;1584876;88;21005;-79
2021/10/10 01:49:08;;;;;;;;;;;;;;;0.89;75.57;101381.52;1605956;88;21491;-78
2021/10/10 01:51:36;;;;;;;41.30;24.18;;;;;;;0.88;75.65;101383.66;1596678;88;20131;-79
2021/10/10 01:54:04;;;;;;;39.00;22.70;;;;;;;0.86;75.62;101383.61;1603590;88;21005;-79
2021/10/10 01:56:30;;;;;;;;;;;;;;;0.83;75.59;101376.27;1602211;88;21510;-79
2021/10/10 01:58:57;;;;;;;37.67;23.42;;;;;;;0.81;75.71;101383.08;1603109;87;20159;-79
2021/10/10 02:01:23;;;;;;;36.10;23.77;;;;;;;0.76;75.63;101380.86;1597764;88;20935;-79
2021/10/10 02:03:50;;;;;;;35.98;21.68;;;;;;;0.71;75.64;101377.33;1595004;87;20959;-79
2021/10/10 02:06:19;;;;;;;38.73;22.77;;;;;;;0.66;75.72;101374.23;1594346;88;21019;-79
2021/10/10 02:08:51;;;;;;;44.95;24.32;;;;;;;0.62;75.71;101371.17;1592373;88;21227;-79
2021/10/10 02:11:22;;;;;;;40.52;23.70;;;;;;;0.60;75.82;101375.40;1594345;88;21005;-79
2021/10/10 02:13:49;;;;;;;38.70;24.23;;;;;;;0.58;75.90;101379.63;1587696;88;21070;-79
2021/10/10 02:16:16;;;;;;;39.93;23.30;;;;;;;0.56;75.90;101371.05;1589926;88;20947;-79
2021/10/10 02:18:42;;;;;;;37.40;22.73;;;;;;;0.53;75.95;101376.10;1595671;88;20958;-80
2021/10/10 02:21:09;;;;;;;46.18;25.12;;;;;;;0.49;76.03;101374.32;1597359;87;21750;-79
2021/10/10 02:23:36;;;;;;;51.30;26.00;;;;;;;0.44;75.96;101373.35;1582964;88;21928;-79
2021/10/10 02:26:02;;;;;;;36.37;23.47;;;;;;;0.39;76.01;101365.96;1585331;87;20989;-79
2021/10/10 02:28:29;;;;;;;36.10;22.58;;;;;;;0.32;75.96;101362.84;1580102;88;20973;-79
2021/10/10 02:30:56;;;;;;;33.85;22.62;;;;;;;0.25;75.94;101363.53;1582515;88;20968;-79
2021/10/10 02:33:23;;;;;;;37.45;22.55;;;;;;;0.16;75.95;101352.22;1586664;88;21966;-79
2021/10/10 02:35:50;;;;;;;44.13;23.02;;;;;;;0.08;75.91;101353.75;1583593;89;20977;-79
2021/10/10 02:38:16;;;;;;;39.30;23.02;;;;;;;0.01;76.01;101357.04;1578415;87;20978;-79
2021/10/10 02:40:43;;;;;;;42.73;23.95;;;;;;;-0.05;76.16;101360.77;1590624;87;21031;-79
2021/10/10 02:43:10;;;;;;;42.97;25.63;;;;;;;-0.10;76.32;101350.80;1627898;87;20990;-79
2021/10/10 02:45:37;;;;;;;40.83;26.07;;;;;;;-0.12;76.43;101355.89;1630109;86;21926;-79
2021/10/10 02:48:05;;;;;;;40.63;22.70;;;;;;;-0.11;76.59;101351.61;1630371;86;20896;-79
2021/10/10 02:50:32;;;;;;;43.20;22.60;;;;;;;-0.11;76.68;101351.61;1619978;86;21541;-79
2021/10/10 02:52:59;;;;;;;36.83;21.87;;;;;;;-0.11;76.69;101350.33;1630821;87;20923;-79
2021/10/10 02:55:25;;;;;;;41.90;20.80;;;;;;;-0.30;76.60;101325.55;1635801;86;21489;-79
2021/10/10 02:57:52;;;;;;;41.95;21.57;;;;;;;-0.15;76.73;101352.39;1642643;84;21076;-79
2021/10/10 03:00:18;;;;;;;36.08;20.00;;;;;;;-0.16;76.77;101351.53;1652026;86;21029;-79
2021/10/10 03:02:45;;;;;;;45.53;22.33;;;;;;;-0.18;76.85;101347.19;1638086;86;20973;-79
2021/10/10 03:05:14;;;;;;;33.25;20.23;;;;;;;-0.18;76.88;101347.19;1638097;86;21008;-79
2021/10/10 03:07:41;;;;;;;28.95;18.52;;;;;;;-0.20;76.82;101349.71;1606227;86;21028;-79
2021/10/10 03:10:09;;;;;;;30.25;18.62;;;;;;;-0.23;76.87;101342.80;1622128;86;21740;-79
2021/10/10 03:12:35;;;;;;;29.07;17.77;;;;;;;-0.23;77.06;101350.50;1625809;86;26956;-79
2021/10/10 03:15:03;;;;;;;29.50;15.90;;;;;;;-0.20;77.17;101346.28;1628130;86;20950;-79
2021/10/10 03:17:29;;;;;;;25.10;16.00;;;;;;;-0.17;77.28;101336.94;1627180;86;21452;-79
2021/10/10 03:20:02;;;;;;;24.82;15.70;;;;;;;-0.12;77.37;101337.05;1631735;85;20981;-79
2021/10/10 03:22:29;;;;;;;23.80;15.63;;;;;;;-0.07;77.44;101332.47;1602657;87;21994;-79
2021/10/10 03:24:56;;;;;;;24.70;15.23;;;;;;;-0.05;77.32;101336.37;1619857;87;20940;-79
2021/10/10 03:27:28;;;;;;;24.25;16.05;;;;;;;-0.05;77.32;101334.66;1622341;87;20914;-79
2021/10/10 03:29:58;;;;;;;27.85;15.32;;;;;;;-0.04;77.39;101330.39;1618805;87;20963;-79
2021/10/10 03:32:31;;;;;;;24.20;15.55;;;;;;;-0.03;77.34;101334.68;1633989;86;21624;-79
2021/10/10 03:35:02;;;;;;;26.62;16.20;;;;;;;-0.03;77.40;101330.83;1632256;85;22463;-79
2021/10/10 03:37:35;;;;;;;28.17;15.88;;;;;;;-0.02;77.47;101332.16;1631030;87;21645;-79
2021/10/10 03:40:02;;;;;;;28.67;16.65;;;;;;;-0.03;77.43;101330.83;1627817;86;20899;-79
2021/10/10 03:42:30;;;;;;;31.27;17.07;;;;;;;-0.03;77.40;101328.26;1624003;86;20987;-79
2021/10/10 03:45:02;;;;;;;31.25;16.23;;;;;;;-0.04;77.43;101330.39;1626283;87;20946;-79
2021/10/10 03:47:36;;;;;;;31.93;16.12;;;;;;;-0.04;77.45;101323.97;1626726;87;21147;-79
2021/10/10 03:50:05;;;;;;;30.62;15.25;;;;;;;-0.04;77.49;101323.55;1621526;86;20931;-79
2021/10/10 03:52:33;;;;;;;26.82;14.95;;;;;;;-0.07;77.54;101316.20;1633694;86;21834;-79
2021/10/10 03:57:38;;;;;;;25.60;16.57;;;;;;;-0.09;77.65;101321.71;1628481;87;20468;-79
2021/10/10 04:00:12;;;;;;;23.57;16.27;;;;;;;-0.15;77.58;101317.31;1622905;87;21098;-79
2021/10/10 04:02:41;;;;;;;29.40;17.37;;;;;;;-0.18;77.58;101316.39;1627744;85;20970;-79
2021/10/10 04:08:01;;;;;;;29.10;17.35;;;;;;;-0.20;77.71;101314.19;1568049;88;21631;-78
2021/10/10 04:10:27;;;;;;;28.15;15.98;;;;;;;-0.20;77.75;101318.05;1566809;88;21001;-79
2021/10/10 04:13:02;;;;;;;25.97;15.32;;;;;;;-0.19;77.82;101313.38;1566812;89;21840;-79
2021/10/10 04:15:30;;;;;;;25.50;16.05;;;;;;;-0.20;77.83;101312.91;1550556;90;22114;-79
2021/10/10 04:18:03;;;;;;;23.42;14.60;;;;;;;-0.23;77.79;101308.15;1582037;87;20977;-79
2021/10/10 04:20:31;;;;;;;23.47;14.87;;;;;;;-0.22;77.86;101312.89;1561860;89;21017;-79
2021/10/10 04:22:58;;;;;;;23.70;14.63;;;;;;;-0.21;77.89;101311.19;1546387;90;21044;-78
2021/10/10 04:25:25;;;;;;;23.40;15.20;;;;;;;-0.23;77.88;101312.00;1554600;90;22367;-78
2021/10/10 04:27:54;;;;;;;24.82;15.18;;;;;;;-0.34;77.89;101295.49;1559257;90;20958;-78
2021/10/10 04:30:27;;;;;;;25.17;15.05;;;;;;;-0.25;77.91;101311.13;1558773;89;20971;-78
2021/10/10 04:32:55;;;;;;;24.67;15.80;;;;;;;-0.29;77.84;101309.30;1563492;90;20930;-77
2021/10/10 04:35:25;;;;;;;26.85;16.20;;;;;;;-0.31;77.86;101314.84;1563786;89;20975;-77
2021/10/10 04:37:56;;;;;;;19.82;14.85;;;;;;;-0.34;77.87;101310.03;1560053;90;21057;-78
2021/10/10 04:40:24;;;;;;;25.57;15.20;;;;;;;-0.36;77.91;101309.16;1573975;89;21687;-78
2021/10/10 04:42:50;;;;;;;27.20;16.82;;;;;;;-0.36;77.98;101306.16;1590053;87;22079;-78
2021/10/10 04:45:18;;;;;;;24.32;15.98;;;;;;;-0.36;77.97;101302.73;1636982;86;20988;-78
2021/10/10 04:47:49;;;;;;;21.35;14.83;;;;;;;-0.34;78.05;101305.77;1634208;86;20978;-78
2021/10/10 04:50:17;;;;;;;26.87;14.73;;;;;;;-0.38;77.84;101307.82;1636228;86;21919;-78
2021/10/10 04:52:46;;;;;;;27.93;14.50;;;;;;;-0.46;77.82;101304.20;1637919;86;20994;-78
2021/10/10 04:55:13;;;;;;;26.77;16.17;;;;;;;-0.48;77.92;101312.28;1636267;86;21046;-78
2021/10/10 04:57:40;;;;;;;25.62;15.85;;;;;;;-0.50;77.97;101306.27;1632970;86;22837;-78
2021/10/10 05:00:10;;;;;;;21.68;14.93;;;;;;;-0.50;78.11;101307.55;1636688;86;20976;-78
2021/10/10 05:02:41;;;;;;;22.90;14.58;;;;;;;-0.46;78.17;101310.63;1638152;86;21145;-78
2021/10/10 05:05:09;;;;;;;23.57;15.58;;;;;;;-0.46;78.10;101305.49;1617363;87;27366;-75
2021/10/10 05:07:35;;;;;;;24.45;15.72;;;;;;;-0.43;78.12;101309.41;1652936;85;21485;-78
2021/10/10 05:10:04;;;;;;;22.90;15.57;;;;;;;-0.43;78.12;101305.56;1639763;86;20961;-78
2021/10/10 05:12:33;;;;;;;24.23;15.23;;;;;;;-0.42;78.09;101303.47;1610250;87;21085;-78
2021/10/10 05:15:09;;;;;;;23.07;16.97;;;;;;;-0.45;78.07;101299.52;1618190;87;21880;-78
2021/10/10 05:17:33;;;;;;;25.15;14.03;;;;;;;-0.45;78.08;101300.80;1641052;86;20934;-78
2021/10/10 05:20:00;;;;;;;26.15;16.17;;;;;;;-0.46;78.05;101308.06;1616746;86;20990;-78
2021/10/10 05:22:30;;;;;;;28.40;16.77;;;;;;;-0.47;78.12;101308.91;1614426;86;20939;-78
2021/10/10 05:24:59;;;;;;;27.32;16.45;;;;;;;-0.34;78.33;101308.33;1643234;85;20990;-78
2021/10/10 05:27:27;;;;;;;27.42;16.17;;;;;;;-0.01;78.59;101304.77;1613518;86;21127;-78
2021/10/10 05:29:54;;;;;;;27.65;16.37;;;;;;;0.36;78.46;101300.38;1643848;84;20983;-79
2021/10/10 05:32:23;;;;;;;28.73;16.50;;;;;;;0.75;78.44;101301.97;1617236;87;21081;-79
2021/10/10 05:34:50;;;;;;;29.95;18.30;;;;;;;1.23;78.55;101288.20;1642786;85;21596;-79
2021/10/10 05:37:39;;;;;;;31.53;18.07;;;;;;;1.75;78.41;101296.72;1635535;85;21570;-79
2021/10/10 05:40:10;;;;;;;31.57;16.55;;;;;;;2.15;78.05;101281.78;1621329;87;21572;-79
2021/10/10 05:42:38;;;;;;;27.30;16.25;;;;;;;2.60;77.89;101283.14;1620524;86;21041;-79
2021/10/10 05:45:06;;;;;;;22.82;15.70;;;;;;;3.00;77.64;101283.11;1625480;86;20931;-80
2021/10/10 05:47:33;;;;;;;27.98;18.05;;;;;;;3.31;77.28;101282.06;1621828;87;21014;-80
2021/10/10 05:49:59;;;;;;;28.30;18.32;;;;;;;3.65;77.23;101271.53;1627052;86;21047;-79
2021/10/10 05:52:27;;;;;;;28.65;21.15;;;;;;;4.00;77.35;101279.88;1622994;86;22055;-79
2021/10/10 05:54:54;;;;;;;32.55;20.30;;;;;;;4.38;76.94;101281.77;1602017;88;20974;-79
2021/10/10 05:57:25;;;;;;;35.92;21.82;;;;;;;4.59;76.75;101275.77;1626271;86;20959;-79
2021/10/10 05:59:55;;;;;;;32.58;20.57;;;;;;;4.84;76.73;101271.06;1616253;86;20955;-79
2021/10/10 06:02:18;;;;;;;27.05;17.50;;;;;;;5.12;76.54;101277.55;1598221;86;21396;-79
2021/10/10 06:04:45;;;;;;;27.07;17.13;;;;;;;5.28;76.33;101275.83;1624539;86;21056;-79
2021/10/10 06:07:11;;;;;;;23.97;16.27;;;;;;;5.50;76.38;101269.75;1630364;86;20989;-79
2021/10/10 06:09:38;;;;;;;22.75;13.88;;;;;;;5.72;76.23;101269.72;1628537;86;20986;-79
2021/10/10 06:12:06;;;;;;;21.97;13.58;;;;;;;5.95;76.15;101261.45;1620792;86;20972;-79
2021/10/10 06:14:33;;;;;;;25.77;15.85;;;;;;;6.14;75.99;101266.14;1626377;86;20955;-79
2021/10/10 06:17:00;;;;;;;25.62;16.60;;;;;;;6.32;75.89;101271.66;1629930;86;21021;-80
2021/10/10 06:19:27;;;;;;;27.48;16.87;;;;;;;6.47;76.03;101265.11;1621987;86;20994;-80
2021/10/10 06:21:54;;;;;;;20.20;14.77;;;;;;;6.69;75.21;101267.56;1620725;86;20892;-80
2021/10/10 06:24:20;;;;;;;20.17;14.18;;;;;;;6.69;75.21;101267.56;1619229;86;21889;-80
2021/10/10 06:26:47;;;;;;;20.20;14.55;;;;;;;6.66;75.16;101267.58;1623568;86;20979;-80
2021/10/10 06:29:14;;;;;;;25.87;15.47;;;;;;;6.67;75.37;101261.54;1613612;86;21176;-81
2021/10/10 06:31:43;;;;;;;19.27;13.77;;;;;;;6.80;75.72;101264.89;1623579;86;21558;-80
2021/10/10 06:34:10;;;;;;;21.12;14.25;;;;;;;7.03;75.76;101263.41;1609850;86;21033;-80
2021/10/10 06:36:37;;;;;;;22.65;13.83;;;;;;;7.19;75.59;101255.92;1615042;87;21478;-79
2021/10/10 06:39:08;;;;;;;22.85;13.20;;;;;;;7.29;75.44;101252.38;1621074;86;20978;-83
2021/10/10 06:41:56;;;;;;;;;;;;;;;;;;;;;
2021/10/10 06:44:32;;;;;;;25.12;16.87;;;;;;;7.44;75.82;101254.41;1623132;87;20923;-81
2021/10/10 06:46:59;;;;;;;24.67;16.15;;;;;;;7.74;76.11;101259.73;1633179;86;20995;-77
2021/10/10 06:49:36;;;;;;;23.20;15.38;;;;;;;7.97;76.01;101256.86;1630593;86;21027;-79
2021/10/10 06:52:14;;;;;;;22.67;14.87;;;;;;;8.10;75.84;101255.83;1617111;86;20940;-81
2021/10/10 06:54:40;;;;;;;22.37;15.05;;;;;;;8.23;75.92;101252.20;1627267;86;21568;-81
2021/10/10 06:57:11;;;;;;;21.82;14.90;;;;;;;8.48;76.11;101254.48;1634511;85;20963;-80
2021/10/10 06:59:38;;;;;;;26.12;14.73;;;;;;;8.67;75.88;101249.42;1636216;86;21542;-80
2021/10/10 07:02:05;;;;;;;22.00;14.68;;;;;;;8.65;75.62;101247.27;1630452;86;21117;-80
2021/10/10 07:04:32;;;;;;;25.70;14.50;;;;;;;8.73;76.16;101251.92;1631825;86;21567;-80
2021/10/10 07:07:02;;;;;;;20.45;14.35;;;;;;;8.98;76.18;101247.64;1631739;86;21091;-82
2021/10/10 07:09:31;;;;;;;24.15;14.80;;;;;;;9.04;76.14;101246.69;1608554;86;20989;-80
2021/10/10 07:12:14;;;;;;;24.72;17.12;;;;;;;9.07;76.52;101250.09;1623180;86;21057;-81
2021/10/10 07:14:50;;;;;;;26.52;18.45;;;;;;;8.95;76.46;101248.55;1626647;86;21042;-81
2021/10/10 07:17:27;;;;;;;31.80;21.40;;;;;;;8.81;76.52;101247.06;1626291;86;21402;-80
2021/10/10 07:23:28;;;;;;;26.68;18.50;;;;;;;8.69;76.78;101250.27;1625969;86;20955;-80
2021/10/10 07:25:11;;;;;;;33.48;19.62;;;;;;;8.69;76.78;101248.97;1619813;86;20995;-80
2021/10/10 07:27:42;;;;;;;32.08;21.17;;;;;;;8.73;76.74;101252.38;1587490;87;21910;-80
2021/10/10 07:30:13;;;;;;;42.15;23.98;;;;;;;8.79;76.92;101251.42;1599666;86;21021;-80
2021/10/10 07:32:41;;;;;;;33.15;21.25;;;;;;;8.91;76.59;101251.25;1625151;86;21073;-81
2021/10/10 07:35:15;;;;;;;31.97;19.98;;;;;;;8.89;76.42;101250.41;1621230;86;20966;-84
2021/10/10 07:37:42;;;;;;;27.52;18.12;;;;;;;8.96;76.50;101252.01;1622268;86;20984;-78
2021/10/10 07:40:11;;;;;;;24.75;17.87;;;;;;;9.06;76.10;101248.38;1628439;86;21011;-77
2021/10/10 07:42:38;;;;;;;27.85;19.10;;;;;;;9.13;76.05;101251.31;1628014;86;20990;-77
2021/10/10 07:45:08;;;;;;;22.00;14.90;;;;;;;9.24;76.19;101251.55;1606475;87;21964;-78
2021/10/10 07:47:51;;;;;;;17.23;12.80;;;;;;;9.39;76.00;101248.69;1627938;86;20978;-79
2021/10/10 07:50:20;;;;;;;14.83;12.15;;;;;;;9.57;76.02;101244.42;1628456;86;20996;-77
2021/10/10 07:52:48;;;;;;;16.27;13.15;;;;;;;9.81;75.65;101239.64;1623880;86;20908;-77
2021/10/10 07:55:15;;;;;;;15.78;12.50;;;;;;;9.89;75.18;101241.66;1628917;86;20998;-77
2021/10/10 07:57:42;;;;;;;18.07;13.08;;;;;;;9.96;75.30;101241.92;1629892;86;21153;-77
2021/10/10 08:00:11;;;;;;;20.75;12.68;;;;;;;10.11;75.55;101247.72;1629186;86;20997;-78
2021/10/10 08:03:03;;;;;;;23.83;18.00;;;;;;;10.29;75.37;101234.31;1623772;86;20959;-79
2021/10/10 08:05:43;;;;;;;16.10;12.95;;;;;;;10.47;75.43;101236.95;1627206;86;20974;-80
2021/10/10 08:08:11;;;;;;;18.65;12.47;;;;;;;10.65;75.13;101235.69;1634676;86;20959;-80
2021/10/10 08:10:39;;;;;;;15.38;12.15;;;;;;;10.70;74.87;101230.77;1636418;86;21888;-79
2021/10/10 08:13:09;;;;;;;19.20;12.68;;;;;;;10.79;74.86;101238.83;1641042;86;20974;-80
2021/10/10 08:15:41;;;;;;;20.45;13.60;;;;;;;10.86;74.76;101235.16;1633612;86;21991;-76
2021/10/10 08:18:11;;;;;;;20.43;14.07;;;;;;;10.92;74.46;101235.03;1634146;86;20983;-83
2021/10/10 08:20:38;;;;;;;23.07;16.67;;;;;;;11.04;74.67;101235.62;1638711;86;21020;-81
2021/10/10 08:23:08;;;;;;;25.85;18.07;;;;;;;11.11;74.34;101231.94;1616986;86;21063;-80
2021/10/10 08:25:34;;;;;;;15.68;12.43;;;;;;;11.18;74.38;101233.52;1638371;85;20943;-81
2021/10/10 08:28:01;;;;;;;14.23;12.63;;;;;;;11.32;74.35;101240.55;1636511;86;20931;-81
2021/10/10 08:30:28;;;;;;;18.02;13.62;;;;;;;11.49;74.34;101235.33;1639234;84;20933;-78
2021/10/10 08:32:55;;;;;;;15.23;12.37;;;;;;;11.51;73.79;101236.13;1641251;84;22006;-78
2021/10/10 08:35:22;;;;;;;15.28;11.80;;;;;;;11.51;73.54;101236.13;1604070;87;21115;-78
2021/10/10 08:37:49;;;;;;;18.77;11.65;;;;;;;11.53;73.65;101233.02;1637974;86;21509;-78
2021/10/10 08:40:17;;;;;;;14.58;11.75;;;;;;;11.61;73.41;101227.13;1637749;86;21014;-78
2021/10/10 08:42:47;;;;;;;;;;;;;;;11.67;73.47;101226.95;1637039;84;21454;-78
2021/10/10 08:45:22;;;;;;;21.48;14.28;;;;;;;11.69;72.86;101228.23;1630375;86;20084;-78
2021/10/10 08:47:53;;;;;;;18.57;15.83;;;;;;;11.73;72.91;101222.86;1622023;86;22592;-79
2021/10/10 08:50:23;;;;;;;27.95;17.55;;;;;;;11.70;72.58;101229.48;1628194;86;21008;-79
2021/10/10 08:52:55;;;;;;;19.00;10.93;;;;;;;11.70;72.71;101224.25;1626974;86;20972;-79
2021/10/10 08:55:23;;;;;;;16.12;13.58;;;;;;;11.72;72.64;101223.77;1621948;86;20953;-79
2021/10/10 08:57:51;;;;;;;12.25;10.93;;;;;;;11.77;72.52;101227.13;1619297;86;21077;-79
2021/10/10 09:00:35;;;;;;;15.20;12.53;;;;;;;11.82;72.23;101222.62;1624701;86;21459;-78
2021/10/10 09:03:14;;;;;;;13.45;11.28;;;;;;;11.91;72.49;101224.60;1613810;86;21034;-75
2021/10/10 09:05:45;;;;;;;32.55;22.65;;;;;;;12.04;72.17;101218.08;1622436;86;20962;-79
2021/10/10 09:08:13;;;;;;;14.40;12.45;;;;;;;12.13;71.81;101212.59;1626715;86;20919;-79
2021/10/10 09:10:42;;;;;;;14.00;10.93;;;;;;;12.07;71.57;101210.13;1626449;86;20955;-81
2021/10/10 09:13:16;;;;;;;12.37;10.93;;;;;;;12.01;71.03;101209.02;1617574;86;21182;-76
2021/10/10 09:15:53;;;;;;;14.43;11.45;;;;;;;11.98;71.28;101203.88;1609885;87;21019;-79
2021/10/10 09:18:46;;;;;;;15.32;11.43;;;;;;;12.04;71.30;101210.23;1617905;86;21037;-78
2021/10/10 09:21:27;;;;;;;15.05;11.45;;;;;;;12.09;70.97;101208.34;1633360;86;20958;-77
2021/10/10 09:23:56;;;;;;;14.53;11.50;;;;;;;12.10;70.99;101198.30;1607156;87;21829;-78
2021/10/10 09:26:33;;;;;;;12.03;10.70;;;;;;;12.13;70.43;101202.13;1640244;86;21116;-79
2021/10/10 09:29:06;;;;;;;13.03;10.88;;;;;;;12.08;70.41;101197.47;1640756;86;21012;-76
2021/10/10 09:31:33;;;;;;;14.15;12.30;;;;;;;12.08;70.27;101197.02;1633183;84;21054;-75
2021/10/10 09:34:00;;;;;;;15.48;10.75;;;;;;;12.09;70.13;101195.25;1628687;86;20966;-76
2021/10/10 09:36:29;;;;;;;13.08;10.82;;;;;;;12.06;70.03;101196.66;1621005;86;20978;-76
2021/10/10 09:39:13;;;;;;;12.30;10.35;;;;;;;12.09;69.96;101192.63;1618471;86;21163;-78
2021/10/10 09:41:54;;;;;;;11.85;10.32;;;;;;;12.13;69.88;101185.11;1624501;86;21031;-75
2021/10/10 09:44:31;;;;;;;13.15;10.95;;;;;;;12.13;69.39;101183.80;1615843;86;20984;-79
2021/10/10 09:47:01;;;;;;;11.97;10.23;;;;;;;12.13;69.81;101180.30;1611290;86;20983;-76
2021/10/10 09:49:32;;;;;;;14.15;10.75;;;;;;;12.15;69.28;101174.11;1618611;86;21006;-71
2021/10/10 09:52:16;;;;;;;12.95;10.28;;;;;;;12.17;69.25;101174.92;1612209;86;20920;-81
2021/10/10 09:54:57;;;;;;;12.95;10.15;;;;;;;12.20;69.15;101180.06;1616667;86;20943;-82
2021/10/10 09:57:28;;;;;;;13.08;8.98;;;;;;;12.26;69.26;101170.70;1615743;86;20961;-79
2021/10/10 09:59:56;;;;;;;12.00;10.10;;;;;;;12.34;68.77;101170.94;1613371;86;20967;-80
2021/10/10 10:02:42;;;;;;;13.13;9.73;;;;;;;12.40;68.90;101173.35;1618786;86;21072;-82
2021/10/10 10:05:09;;;;;;;12.25;10.03;;;;;;;12.40;68.90;101173.35;1593890;86;21224;-79
2021/10/10 10:07:36;;;;;;;12.93;10.18;;;;;;;12.52;68.86;101171.21;1592622;88;22256;-82
2021/10/10 10:10:03;;;;;;;12.63;9.28;;;;;;;12.56;68.59;101160.17;1619758;86;21037;-80
2021/10/10 10:12:31;;;;;;;11.50;10.30;;;;;;;12.61;68.18;101163.97;1616020;86;21135;-81
2021/10/10 10:15:02;;;;;;;14.35;9.58;;;;;;;12.61;68.33;101163.50;1636483;85;21394;-78
2021/10/10 10:17:33;;;;;;;12.47;9.55;;;;;;;12.57;67.92;101164.49;1637293;86;21079;-81
2021/10/10 10:20:03;;;;;;;11.73;9.40;;;;;;;12.56;67.99;101161.48;1635029;86;20957;-80
2021/10/10 10:22:41;;;;;;;13.80;9.90;;;;;;;12.54;67.95;101154.97;1635402;86;20957;-80
2021/10/10 10:25:10;;;;;;;12.58;10.18;;;;;;;12.61;67.80;101156.95;1603567;87;20979;-80
2021/10/10 10:27:42;;;;;;;11.22;9.25;;;;;;;12.62;67.64;101157.34;1633284;86;21062;-80
2021/10/10 10:30:27;;;;;;;11.35;8.73;;;;;;;12.61;67.53;101149.09;1602084;88;21533;-79
2021/10/10 10:32:46;;;;;;;12.78;9.98;;;;;;;12.65;67.24;101148.06;1623076;86;20982;-81
2021/10/10 10:35:16;;;;;;;10.98;9.28;;;;;;;12.59;67.24;101148.28;1623324;86;21049;-79
2021/10/10 10:37:51;;;;;;;11.63;9.80;;;;;;;12.60;67.31;101142.12;1627141;86;20963;-79
2021/10/10 10:40:41;;;;;;;13.10;9.40;;;;;;;12.58;67.04;101142.64;1620533;86;20979;-89
2021/10/10 10:43:12;;;;;;;13.72;9.70;;;;;;;12.53;67.05;101141.94;1637586;86;21089;-89
2021/10/10 10:45:45;;;;;;;13.28;9.53;;;;;;;12.43;66.84;101137.43;1614586;87;20970;-91
2021/10/10 10:48:37;;;;;;;10.35;8.83;;;;;;;12.35;66.96;101133.34;1643899;86;20918;-76
2021/10/10 10:51:25;;;;;;;11.33;8.58;;;;;;;12.26;66.65;101132.73;1647929;85;20919;-78
2021/10/10 10:53:52;;;;;;;12.30;9.10;;;;;;;12.22;66.85;101128.52;1657867;84;21189;-78
2021/10/10 10:56:29;;;;;;;10.13;8.13;;;;;;;12.21;66.63;101132.05;1626646;86;21128;-76
2021/10/10 10:59:10;;;;;;;13.03;7.95;;;;;;;12.20;66.60;101125.08;1614163;87;20914;-77
2021/10/10 11:02:02;;;;;;;9.00;7.70;;;;;;;12.26;66.36;101118.78;1561888;89;21086;-78
2021/10/10 11:07:30;;;;;;;9.78;7.90;;;;;;;12.45;66.39;101105.95;1533595;90;20976;-77
2021/10/10 11:10:02;;;;;;;9.30;7.60;;;;;;;12.45;66.43;101089.78;1516238;89;21267;-77
2021/10/10 11:12:50;;;;;;;9.03;7.62;;;;;;;12.45;66.43;101089.78;1583571;87;21049;-77
2021/10/10 11:15:20;;;;;;;11.50;7.78;;;;;;;12.61;66.04;101104.55;1577256;87;21056;-77
2021/10/10 11:17:57;;;;;;;16.57;8.50;;;;;;;12.68;65.84;101104.72;1587486;87;21603;-77
2021/10/10 11:20:32;;;;;;;11.15;7.15;;;;;;;12.68;65.84;101104.72;1567730;87;21513;-77
2021/10/10 11:23:10;;;;;;;10.80;7.62;;;;;;;12.74;65.91;101094.48;1587110;88;21103;-77
2021/10/10 11:25:48;;;;;;;8.05;6.90;;;;;;;12.78;65.70;101097.88;1584395;87;20939;-77
2021/10/10 11:28:36;;;;;;;10.05;7.47;;;;;;;12.81;65.51;101091.22;1552839;91;21031;-76
2021/10/10 11:30:47;;;;;;;11.45;7.35;;;;;;;12.83;65.45;101090.72;1550931;89;20982;-77
2021/10/10 11:33:23;;;;;;;8.65;7.47;;;;;;;12.88;65.21;101087.45;1589703;89;23463;-77
2021/10/10 11:36:11;;;;;;;9.48;7.28;;;;;;;12.79;65.12;101066.82;1594613;87;22296;-77
2021/10/10 11:38:53;;;;;;;;;;;;;;;;;;;;;
2021/10/10 11:41:01;;;;;;;8.25;7.40;;;;;;;12.84;65.00;101076.69;1539716;89;21580;-77
2021/10/10 11:43:38;;;;;;;9.83;6.33;;;;;;;12.88;65.11;101075.66;1574115;88;21117;-77